sensor_id;sensor_type;location;lat;lon;timestamp;pressure;altitude;pressure_sealevel;temperature;humidity
52651;BME280;38537;47.226;39.702;2023-04-28T00:01:20;99775.78;;;18.16;61.74
52651;BME280;38537;47.226;39.702;2023-04-28T00:03:48;99797.03;;;18.29;61.65
52651;BME280;38537;47.226;39.702;2023-04-28T00:06:15;99797.03;;;18.29;61.88
52651;BME280;38537;47.226;39.702;2023-04-28T00:08:42;99802.59;;;18.26;61.59
52651;BME280;38537;47.226;39.702;2023-04-28T00:11:10;99782.47;;;18.08;62.07
52651;BME280;38537;47.226;39.702;2023-04-28T00:13:37;99798.88;;;18.22;62.19
52651;BME280;38537;47.226;39.702;2023-04-28T00:16:05;99796.84;;;18.19;62.22
52651;BME280;38537;47.226;39.702;2023-04-28T00:18:33;99787.22;;;18.04;62.66
52651;BME280;38537;47.226;39.702;2023-04-28T00:21:00;99788.72;;;17.98;63.04
52651;BME280;38537;47.226;39.702;2023-04-28T00:23:27;99785.97;;;17.82;63.76
52651;BME280;38537;47.226;39.702;2023-04-28T00:25:55;99800.78;;;17.95;63.24
52651;BME280;38537;47.226;39.702;2023-04-28T00:28:23;99779.88;;;17.80;63.73
52651;BME280;38537;47.226;39.702;2023-04-28T00:30:53;99778.03;;;17.68;63.93
52651;BME280;38537;47.226;39.702;2023-04-28T00:33:20;99783.75;;;17.72;64.33
52651;BME280;38537;47.226;39.702;2023-04-28T00:35:48;99779.00;;;17.60;64.35
52651;BME280;38537;47.226;39.702;2023-04-28T00:38:15;99772.28;;;17.30;65.37
52651;BME280;38537;47.226;39.702;2023-04-28T00:40:42;99781.75;;;17.22;65.99
52651;BME280;38537;47.226;39.702;2023-04-28T00:43:09;99794.09;;;17.33;65.72
52651;BME280;38537;47.226;39.702;2023-04-28T00:45:37;99783.41;;;17.23;65.83
52651;BME280;38537;47.226;39.702;2023-04-28T00:48:04;99790.09;;;17.34;65.25
52651;BME280;38537;47.226;39.702;2023-04-28T00:50:32;99790.28;;;17.41;65.28
52651;BME280;38537;47.226;39.702;2023-04-28T00:52:59;99771.63;;;17.36;65.23
52651;BME280;38537;47.226;39.702;2023-04-28T00:55:26;99782.44;;;17.50;65.30
52651;BME280;38537;47.226;39.702;2023-04-28T00:57:58;99781.69;;;17.53;65.48
52651;BME280;38537;47.226;39.702;2023-04-28T01:00:25;99774.53;;;17.40;65.56
52651;BME280;38537;47.226;39.702;2023-04-28T01:02:53;99759.19;;;17.22;66.27
52651;BME280;38537;47.226;39.702;2023-04-28T01:05:23;99773.75;;;17.24;66.39
52651;BME280;38537;47.226;39.702;2023-04-28T01:07:51;99768.97;;;17.08;66.52
52651;BME280;38537;47.226;39.702;2023-04-28T01:10:19;99765.25;;;17.04;66.74
52651;BME280;38537;47.226;39.702;2023-04-28T01:12:46;99771.78;;;17.08;66.98
52651;BME280;38537;47.226;39.702;2023-04-28T01:15:18;99769.94;;;17.16;66.72
52651;BME280;38537;47.226;39.702;2023-04-28T01:17:51;99776.75;;;17.15;66.68
52651;BME280;38537;47.226;39.702;2023-04-28T01:20:19;99769.56;;;17.18;66.01
52651;BME280;38537;47.226;39.702;2023-04-28T01:22:46;99777.41;;;17.24;66.04
52651;BME280;38537;47.226;39.702;2023-04-28T01:25:14;99757.50;;;17.01;66.55
52651;BME280;38537;47.226;39.702;2023-04-28T01:27:41;99769.97;;;17.00;67.00
52651;BME280;38537;47.226;39.702;2023-04-28T01:30:08;99758.59;;;16.97;67.16
52651;BME280;38537;47.226;39.702;2023-04-28T01:32:36;99773.53;;;16.97;67.34
52651;BME280;38537;47.226;39.702;2023-04-28T01:35:03;99758.34;;;16.86;67.43
52651;BME280;38537;47.226;39.702;2023-04-28T01:37:33;99773.25;;;17.02;67.01
52651;BME280;38537;47.226;39.702;2023-04-28T01:40:00;99776.63;;;17.08;66.63
52651;BME280;38537;47.226;39.702;2023-04-28T01:42:29;99781.16;;;16.97;67.06
52651;BME280;38537;47.226;39.702;2023-04-28T01:44:59;99776.34;;;16.97;67.54
52651;BME280;38537;47.226;39.702;2023-04-28T01:47:31;99764.16;;;16.93;66.67
52651;BME280;38537;47.226;39.702;2023-04-28T01:49:58;99771.78;;;16.93;67.52
52651;BME280;38537;47.226;39.702;2023-04-28T01:52:25;99772.44;;;16.86;67.71
52651;BME280;38537;47.226;39.702;2023-04-28T01:54:54;99774.06;;;16.71;68.17
52651;BME280;38537;47.226;39.702;2023-04-28T01:57:21;99749.75;;;16.51;68.81
52651;BME280;38537;47.226;39.702;2023-04-28T01:59:50;99759.22;;;16.59;68.68
52651;BME280;38537;47.226;39.702;2023-04-28T02:02:17;99759.50;;;16.54;68.67
52651;BME280;38537;47.226;39.702;2023-04-28T02:04:44;99770.72;;;16.66;68.32
52651;BME280;38537;47.226;39.702;2023-04-28T02:07:12;99766.50;;;16.60;68.38
52651;BME280;38537;47.226;39.702;2023-04-28T02:09:40;99763.97;;;16.55;68.46
52651;BME280;38537;47.226;39.702;2023-04-28T02:12:07;99774.97;;;16.44;69.23
52651;BME280;38537;47.226;39.702;2023-04-28T02:14:34;99766.88;;;16.42;68.84
52651;BME280;38537;47.226;39.702;2023-04-28T02:17:02;99791.16;;;16.63;68.48
52651;BME280;38537;47.226;39.702;2023-04-28T02:19:32;99781.25;;;16.69;68.05
52651;BME280;38537;47.226;39.702;2023-04-28T02:21:59;99781.25;;;16.69;68.26
52651;BME280;38537;47.226;39.702;2023-04-28T02:24:27;99793.91;;;16.75;68.07
52651;BME280;38537;47.226;39.702;2023-04-28T02:26:57;99796.56;;;16.84;67.79
52651;BME280;38537;47.226;39.702;2023-04-28T02:29:27;99791.28;;;16.82;67.78
52651;BME280;38537;47.226;39.702;2023-04-28T02:31:56;99793.72;;;16.99;67.01
52651;BME280;38537;47.226;39.702;2023-04-28T02:34:24;99806.72;;;17.20;66.29
52651;BME280;38537;47.226;39.702;2023-04-28T02:36:51;99813.44;;;17.31;65.40
52651;BME280;38537;47.226;39.702;2023-04-28T02:39:18;99796.88;;;17.29;65.39
52651;BME280;38537;47.226;39.702;2023-04-28T02:41:47;99810.03;;;17.41;65.36
52651;BME280;38537;47.226;39.702;2023-04-28T02:44:14;99821.34;;;17.60;64.73
52651;BME280;38537;47.226;39.702;2023-04-28T02:46:42;99829.84;;;17.60;64.44
52651;BME280;38537;47.226;39.702;2023-04-28T02:49:09;99826.78;;;17.50;65.12
52651;BME280;38537;47.226;39.702;2023-04-28T02:51:37;99829.22;;;17.51;64.72
52651;BME280;38537;47.226;39.702;2023-04-28T02:54:04;99826.03;;;17.53;64.40
52651;BME280;38537;47.226;39.702;2023-04-28T02:56:32;99843.94;;;17.60;64.30
52651;BME280;38537;47.226;39.702;2023-04-28T02:59:01;99846.31;;;17.58;64.75
52651;BME280;38537;47.226;39.702;2023-04-28T03:01:29;99844.34;;;17.43;65.26
52651;BME280;38537;47.226;39.702;2023-04-28T03:03:56;99855.81;;;17.50;65.32
52651;BME280;38537;47.226;39.702;2023-04-28T03:06:25;99854.81;;;17.42;65.42
52651;BME280;38537;47.226;39.702;2023-04-28T03:08:52;99849.72;;;17.32;66.02
52651;BME280;38537;47.226;39.702;2023-04-28T03:11:20;99862.03;;;17.40;65.52
52651;BME280;38537;47.226;39.702;2023-04-28T03:13:47;99855.38;;;17.32;65.77
52651;BME280;38537;47.226;39.702;2023-04-28T03:16:14;99851.31;;;17.30;65.73
52651;BME280;38537;47.226;39.702;2023-04-28T03:18:42;99866.75;;;17.36;65.71
52651;BME280;38537;47.226;39.702;2023-04-28T03:21:09;99865.69;;;17.25;66.16
52651;BME280;38537;47.226;39.702;2023-04-28T03:23:37;99870.50;;;17.24;66.31
52651;BME280;38537;47.226;39.702;2023-04-28T03:26:04;99869.88;;;17.31;66.29
52651;BME280;38537;47.226;39.702;2023-04-28T03:28:34;99871.88;;;17.30;66.21
52651;BME280;38537;47.226;39.702;2023-04-28T03:31:01;99873.50;;;17.16;66.57
52651;BME280;38537;47.226;39.702;2023-04-28T03:33:29;99873.50;;;17.16;66.72
52651;BME280;38537;47.226;39.702;2023-04-28T03:35:58;99860.75;;;16.90;67.44
52651;BME280;38537;47.226;39.702;2023-04-28T03:38:26;99855.69;;;16.80;67.78
52651;BME280;38537;47.226;39.702;2023-04-28T03:40:54;99879.88;;;16.81;68.07
52651;BME280;38537;47.226;39.702;2023-04-28T03:43:31;99856.94;;;16.67;68.38
52651;BME280;38537;47.226;39.702;2023-04-28T03:46:15;99867.56;;;16.73;68.41
52651;BME280;38537;47.226;39.702;2023-04-28T03:48:42;99868.28;;;16.70;68.66
52651;BME280;38537;47.226;39.702;2023-04-28T03:51:12;99859.31;;;16.53;68.97
52651;BME280;38537;47.226;39.702;2023-04-28T03:53:41;99869.53;;;16.57;69.47
52651;BME280;38537;47.226;39.702;2023-04-28T03:56:09;99876.59;;;16.79;68.47
52651;BME280;38537;47.226;39.702;2023-04-28T03:58:38;99870.88;;;16.91;67.79
52651;BME280;38537;47.226;39.702;2023-04-28T04:01:05;99862.25;;;17.00;67.31
52651;BME280;38537;47.226;39.702;2023-04-28T04:03:32;99851.06;;;17.03;66.95
52651;BME280;38537;47.226;39.702;2023-04-28T04:06:00;99872.78;;;17.19;67.24
52651;BME280;38537;47.226;39.702;2023-04-28T04:08:28;99862.22;;;17.16;66.73
52651;BME280;38537;47.226;39.702;2023-04-28T04:10:55;99856.59;;;17.16;67.00
52651;BME280;38537;47.226;39.702;2023-04-28T04:13:23;99874.63;;;17.27;66.81
52651;BME280;38537;47.226;39.702;2023-04-28T04:15:50;99879.59;;;17.33;66.48
52651;BME280;38537;47.226;39.702;2023-04-28T04:18:20;99863.84;;;17.32;66.52
52651;BME280;38537;47.226;39.702;2023-04-28T04:21:07;99878.97;;;17.40;66.45
52651;BME280;38537;47.226;39.702;2023-04-28T04:23:34;99880.13;;;17.39;66.33
52651;BME280;38537;47.226;39.702;2023-04-28T04:26:01;99871.13;;;17.33;66.48
52651;BME280;38537;47.226;39.702;2023-04-28T04:28:30;99883.25;;;17.50;66.15
52651;BME280;38537;47.226;39.702;2023-04-28T04:30:57;99882.06;;;17.51;66.10
52651;BME280;38537;47.226;39.702;2023-04-28T04:33:25;99874.50;;;17.39;66.33
52651;BME280;38537;47.226;39.702;2023-04-28T04:35:52;99876.69;;;17.45;66.04
52651;BME280;38537;47.226;39.702;2023-04-28T04:38:20;99886.16;;;17.37;66.61
52651;BME280;38537;47.226;39.702;2023-04-28T04:40:47;99882.81;;;17.32;66.92
52651;BME280;38537;47.226;39.702;2023-04-28T04:43:15;99881.78;;;17.40;66.63
52651;BME280;38537;47.226;39.702;2023-04-28T04:45:46;99879.59;;;17.33;66.52
52651;BME280;38537;47.226;39.702;2023-04-28T04:48:14;99865.59;;;17.21;66.79
52651;BME280;38537;47.226;39.702;2023-04-28T04:50:42;99890.34;;;17.12;67.64
52651;BME280;38537;47.226;39.702;2023-04-28T04:53:10;99880.91;;;17.04;68.21
52651;BME280;38537;47.226;39.702;2023-04-28T04:55:42;99873.97;;;16.86;68.72
52651;BME280;38537;47.226;39.702;2023-04-28T04:58:10;99889.88;;;16.78;68.95
52651;BME280;38537;47.226;39.702;2023-04-28T05:00:56;99891.16;;;16.81;69.15
52651;BME280;38537;47.226;39.702;2023-04-28T05:03:23;99901.72;;;16.84;69.20
52651;BME280;38537;47.226;39.702;2023-04-28T05:05:51;99884.50;;;16.89;69.09
52651;BME280;38537;47.226;39.702;2023-04-28T05:08:39;99896.09;;;17.00;68.72
52651;BME280;38537;47.226;39.702;2023-04-28T05:11:06;99869.31;;;16.94;68.63
52651;BME280;38537;47.226;39.702;2023-04-28T05:13:34;99883.25;;;17.18;67.95
52651;BME280;38537;47.226;39.702;2023-04-28T05:16:02;99885.81;;;17.23;68.21
52651;BME280;38537;47.226;39.702;2023-04-28T05:18:41;99885.00;;;17.23;67.99
52651;BME280;38537;47.226;39.702;2023-04-28T05:21:09;99900.53;;;17.17;68.38
52651;BME280;38537;47.226;39.702;2023-04-28T05:23:37;99888.81;;;17.14;68.66
52651;BME280;38537;47.226;39.702;2023-04-28T05:26:05;99886.34;;;17.13;68.67
52651;BME280;38537;47.226;39.702;2023-04-28T05:28:32;99878.19;;;17.08;68.55
52651;BME280;38537;47.226;39.702;2023-04-28T05:31:00;99893.81;;;17.05;68.90
52651;BME280;38537;47.226;39.702;2023-04-28T05:33:29;99902.81;;;17.11;68.82
52651;BME280;38537;47.226;39.702;2023-04-28T05:35:57;99899.47;;;17.05;68.82
52651;BME280;38537;47.226;39.702;2023-04-28T05:38:24;99897.97;;;17.11;68.82
52651;BME280;38537;47.226;39.702;2023-04-28T05:40:55;99885.53;;;17.12;68.49
52651;BME280;38537;47.226;39.702;2023-04-28T05:43:22;99883.63;;;17.17;68.55
52651;BME280;38537;47.226;39.702;2023-04-28T05:45:49;99898.81;;;17.12;68.83
52651;BME280;38537;47.226;39.702;2023-04-28T05:48:17;99906.09;;;17.13;69.11
52651;BME280;38537;47.226;39.702;2023-04-28T05:50:48;99901.00;;;17.19;69.20
52651;BME280;38537;47.226;39.702;2023-04-28T05:53:28;99859.25;;;17.08;68.42
52651;BME280;38537;47.226;39.702;2023-04-28T05:55:56;99908.91;;;17.44;68.48
52651;BME280;38537;47.226;39.702;2023-04-28T05:58:24;99886.25;;;17.41;67.39
52651;BME280;38537;47.226;39.702;2023-04-28T06:00:51;99923.81;;;17.76;66.62
52651;BME280;38537;47.226;39.702;2023-04-28T06:03:20;99923.00;;;17.92;66.20
52651;BME280;38537;47.226;39.702;2023-04-28T06:05:48;99913.63;;;18.07;65.59
52651;BME280;38537;47.226;39.702;2023-04-28T06:08:16;99909.88;;;18.19;65.03
52651;BME280;38537;47.226;39.702;2023-04-28T06:10:43;99916.34;;;18.38;64.39
52651;BME280;38537;47.226;39.702;2023-04-28T06:13:11;99915.91;;;18.56;64.22
52651;BME280;38537;47.226;39.702;2023-04-28T06:15:41;99914.03;;;18.63;63.76
52651;BME280;38537;47.226;39.702;2023-04-28T06:18:08;99919.56;;;18.75;63.50
52651;BME280;38537;47.226;39.702;2023-04-28T06:20:37;99914.13;;;18.67;63.83
52651;BME280;38537;47.226;39.702;2023-04-28T06:23:04;99932.28;;;18.66;64.43
52651;BME280;38537;47.226;39.702;2023-04-28T06:25:32;99939.50;;;18.82;63.52
52651;BME280;38537;47.226;39.702;2023-04-28T06:28:00;99920.38;;;18.76;63.68
52651;BME280;38537;47.226;39.702;2023-04-28T06:30:27;99926.16;;;18.64;64.55
52651;BME280;38537;47.226;39.702;2023-04-28T06:32:54;99931.66;;;18.57;65.04
52651;BME280;38537;47.226;39.702;2023-04-28T06:35:23;99922.75;;;18.55;64.99
52651;BME280;38537;47.226;39.702;2023-04-28T06:37:51;99917.97;;;18.59;64.68
52651;BME280;38537;47.226;39.702;2023-04-28T06:40:19;99902.97;;;18.35;65.51
52651;BME280;38537;47.226;39.702;2023-04-28T06:42:53;99923.47;;;18.32;65.89
52651;BME280;38537;47.226;39.702;2023-04-28T06:45:30;99923.19;;;18.37;65.91
52651;BME280;38537;47.226;39.702;2023-04-28T06:47:58;99923.03;;;18.30;65.91
52651;BME280;38537;47.226;39.702;2023-04-28T06:50:25;99919.03;;;18.31;65.94
52651;BME280;38537;47.226;39.702;2023-04-28T06:52:52;99911.53;;;18.39;65.54
52651;BME280;38537;47.226;39.702;2023-04-28T06:55:20;99911.72;;;18.30;65.76
52651;BME280;38537;47.226;39.702;2023-04-28T06:57:49;99916.56;;;18.30;66.31
52651;BME280;38537;47.226;39.702;2023-04-28T07:00:16;99931.59;;;18.34;66.46
52651;BME280;38537;47.226;39.702;2023-04-28T07:02:43;99932.53;;;18.22;66.84
52651;BME280;38537;47.226;39.702;2023-04-28T07:05:11;99932.69;;;18.29;66.28
52651;BME280;38537;47.226;39.702;2023-04-28T07:07:42;99936.56;;;18.40;65.73
52651;BME280;38537;47.226;39.702;2023-04-28T07:10:09;99919.31;;;18.45;65.54
52651;BME280;38537;47.226;39.702;2023-04-28T07:12:38;99917.91;;;18.36;66.41
52651;BME280;38537;47.226;39.702;2023-04-28T07:15:06;99908.44;;;18.09;67.07
52651;BME280;38537;47.226;39.702;2023-04-28T07:17:36;99917.56;;;18.02;67.51
52651;BME280;38537;47.226;39.702;2023-04-28T07:20:04;99925.22;;;18.02;67.80
52651;BME280;38537;47.226;39.702;2023-04-28T07:22:32;99925.09;;;17.95;67.99
52651;BME280;38537;47.226;39.702;2023-04-28T07:25:00;99920.06;;;17.88;68.16
52651;BME280;38537;47.226;39.702;2023-04-28T07:27:29;99918.34;;;17.84;68.60
52651;BME280;38537;47.226;39.702;2023-04-28T07:29:56;99917.91;;;17.81;68.52
52651;BME280;38537;47.226;39.702;2023-04-28T07:32:24;99905.50;;;17.86;68.40
52651;BME280;38537;47.226;39.702;2023-04-28T07:34:58;99894.22;;;18.05;67.99
52651;BME280;38537;47.226;39.702;2023-04-28T07:37:26;99870.06;;;18.08;67.52
52651;BME280;38537;47.226;39.702;2023-04-28T07:39:53;99903.16;;;18.07;67.64
52651;BME280;38537;47.226;39.702;2023-04-28T07:42:20;99940.72;;;18.27;67.39
52651;BME280;38537;47.226;39.702;2023-04-28T07:44:48;99934.63;;;18.44;66.78
52651;BME280;38537;47.226;39.702;2023-04-28T07:47:15;99940.72;;;18.46;66.82
52651;BME280;38537;47.226;39.702;2023-04-28T07:49:42;99927.78;;;18.45;66.91
52651;BME280;38537;47.226;39.702;2023-04-28T07:52:09;99938.25;;;18.61;66.52
52651;BME280;38537;47.226;39.702;2023-04-28T07:54:37;99933.16;;;18.70;66.69
52651;BME280;38537;47.226;39.702;2023-04-28T07:57:04;99939.50;;;18.82;66.37
52651;BME280;38537;47.226;39.702;2023-04-28T07:59:33;99935.47;;;18.83;66.35
52651;BME280;38537;47.226;39.702;2023-04-28T08:02:00;99919.25;;;18.80;66.50
52651;BME280;38537;47.226;39.702;2023-04-28T08:04:28;99917.41;;;18.69;66.71
52651;BME280;38537;47.226;39.702;2023-04-28T08:06:57;99918.84;;;18.59;67.13
52651;BME280;38537;47.226;39.702;2023-04-28T08:09:24;99921.72;;;18.63;67.03
52651;BME280;38537;47.226;39.702;2023-04-28T08:11:52;99913.66;;;18.65;66.75
52651;BME280;38537;47.226;39.702;2023-04-28T08:14:19;99918.00;;;18.78;66.42
52651;BME280;38537;47.226;39.702;2023-04-28T08:16:47;99923.38;;;18.87;66.53
52651;BME280;38537;47.226;39.702;2023-04-28T08:19:14;99921.22;;;18.99;65.79
52651;BME280;38537;47.226;39.702;2023-04-28T08:21:41;99923.09;;;19.14;65.21
52651;BME280;38537;47.226;39.702;2023-04-28T08:24:09;99913.44;;;19.15;65.18
52651;BME280;38537;47.226;39.702;2023-04-28T08:26:37;99900.66;;;19.25;65.26
52651;BME280;38537;47.226;39.702;2023-04-28T08:29:04;99909.78;;;19.38;65.32
52651;BME280;38537;47.226;39.702;2023-04-28T08:31:32;99885.84;;;19.35;64.37
52651;BME280;38537;47.226;39.702;2023-04-28T08:33:59;99901.91;;;19.50;64.66
52651;BME280;38537;47.226;39.702;2023-04-28T08:36:26;99902.84;;;19.58;64.22
52651;BME280;38537;47.226;39.702;2023-04-28T08:38:59;99905.91;;;19.72;64.26
52651;BME280;38537;47.226;39.702;2023-04-28T08:41:31;99898.19;;;19.69;64.61
52651;BME280;38537;47.226;39.702;2023-04-28T08:43:59;99894.91;;;19.67;64.27
52651;BME280;38537;47.226;39.702;2023-04-28T08:46:26;99912.13;;;19.81;64.44
52651;BME280;38537;47.226;39.702;2023-04-28T08:48:59;99912.81;;;19.75;64.62
52651;BME280;38537;47.226;39.702;2023-04-28T08:51:40;99919.53;;;19.90;64.17
52651;BME280;38537;47.226;39.702;2023-04-28T08:54:13;99915.91;;;19.93;63.73
52651;BME280;38537;47.226;39.702;2023-04-28T08:56:55;99923.88;;;20.10;63.32
52651;BME280;38537;47.226;39.702;2023-04-28T08:59:23;99915.91;;;20.19;63.26
52651;BME280;38537;47.226;39.702;2023-04-28T09:01:50;99920.13;;;20.32;62.63
52651;BME280;38537;47.226;39.702;2023-04-28T09:04:18;99933.84;;;20.27;63.25
52651;BME280;38537;47.226;39.702;2023-04-28T09:06:47;99917.91;;;20.18;63.15
52651;BME280;38537;47.226;39.702;2023-04-28T09:11:55;99944.72;;;20.51;62.36
52651;BME280;38537;47.226;39.702;2023-04-28T09:14:22;99952.53;;;20.61;62.27
52651;BME280;38537;47.226;39.702;2023-04-28T09:16:51;99942.50;;;20.67;61.96
52651;BME280;38537;47.226;39.702;2023-04-28T09:19:19;99949.84;;;20.72;61.88
52651;BME280;38537;47.226;39.702;2023-04-28T09:21:55;99942.09;;;20.69;61.99
52651;BME280;38537;47.226;39.702;2023-04-28T09:24:37;99943.47;;;20.82;61.65
52651;BME280;38537;47.226;39.702;2023-04-28T09:27:10;99937.72;;;20.75;61.73
52651;BME280;38537;47.226;39.702;2023-04-28T09:29:38;99943.09;;;20.83;61.39
52651;BME280;38537;47.226;39.702;2023-04-28T09:32:17;99948.56;;;20.99;61.09
52651;BME280;38537;47.226;39.702;2023-04-28T09:34:51;99938.94;;;21.11;60.85
52651;BME280;38537;47.226;39.702;2023-04-28T09:37:21;99943.53;;;21.23;60.52
52651;BME280;38537;47.226;39.702;2023-04-28T09:39:53;99941.50;;;21.23;60.35
52651;BME280;38537;47.226;39.702;2023-04-28T09:42:40;99937.19;;;21.36;60.36
52651;BME280;38537;47.226;39.702;2023-04-28T09:45:10;99936.91;;;21.52;59.99
52651;BME280;38537;47.226;39.702;2023-04-28T09:47:45;99923.13;;;21.54;59.78
52651;BME280;38537;47.226;39.702;2023-04-28T09:50:16;99930.94;;;21.68;59.61
52651;BME280;38537;47.226;39.702;2023-04-28T09:52:54;99924.44;;;21.67;59.51
52651;BME280;38537;47.226;39.702;2023-04-28T09:55:24;99915.31;;;21.44;59.70
52651;BME280;38537;47.226;39.702;2023-04-28T09:57:53;99920.97;;;21.37;60.14
52651;BME280;38537;47.226;39.702;2023-04-28T10:00:21;99908.31;;;21.31;60.28
52651;BME280;38537;47.226;39.702;2023-04-28T10:02:49;99900.66;;;21.35;60.28
52651;BME280;38537;47.226;39.702;2023-04-28T10:05:20;99883.22;;;21.36;60.37
52651;BME280;38537;47.226;39.702;2023-04-28T10:07:50;99885.38;;;21.53;60.23
52651;BME280;38537;47.226;39.702;2023-04-28T10:10:21;99887.06;;;21.65;60.30
52651;BME280;38537;47.226;39.702;2023-04-28T10:12:49;99886.69;;;21.63;60.08
52651;BME280;38537;47.226;39.702;2023-04-28T10:15:17;99878.03;;;21.49;60.09
52651;BME280;38537;47.226;39.702;2023-04-28T10:17:45;99871.13;;;21.50;60.23
52651;BME280;38537;47.226;39.702;2023-04-28T10:20:14;99864.47;;;21.28;60.34
52651;BME280;38537;47.226;39.702;2023-04-28T10:25:27;99879.56;;;20.95;61.27
52651;BME280;38537;47.226;39.702;2023-04-28T10:27:56;99878.94;;;20.75;61.49
52651;BME280;38537;47.226;39.702;2023-04-28T10:30:25;99890.31;;;20.79;61.71
52651;BME280;38537;47.226;39.702;2023-04-28T10:33:22;99888.81;;;20.88;61.75
52651;BME280;38537;47.226;39.702;2023-04-28T10:35:51;99878.53;;;20.73;61.89
52651;BME280;38537;47.226;39.702;2023-04-28T10:38:19;99894.63;;;20.66;62.29
52651;BME280;38537;47.226;39.702;2023-04-28T10:40:51;99876.75;;;20.62;61.96
52651;BME280;38537;47.226;39.702;2023-04-28T10:46:08;99873.44;;;20.52;63.76
52651;BME280;38537;47.226;39.702;2023-04-28T10:56:22;99955.31;;;20.54;63.19
52651;BME280;38537;47.226;39.702;2023-04-28T10:58:53;99988.84;;;20.78;62.42
52651;BME280;38537;47.226;39.702;2023-04-28T11:03:52;99975.38;;;21.05;61.44
52651;BME280;38537;47.226;39.702;2023-04-28T11:06:34;99957.16;;;21.10;60.84
52651;BME280;38537;47.226;39.702;2023-04-28T11:09:45;99961.34;;;21.19;60.03
52651;BME280;38537;47.226;39.702;2023-04-28T11:17:05;99967.69;;;20.72;60.67
52651;BME280;38537;47.226;39.702;2023-04-28T11:19:43;99983.91;;;20.72;61.42
52651;BME280;38537;47.226;39.702;2023-04-28T11:22:19;99995.16;;;20.65;61.91
52651;BME280;38537;47.226;39.702;2023-04-28T11:25:00;100000.72;;;20.58;61.40
52651;BME280;38537;47.226;39.702;2023-04-28T11:27:32;100002.22;;;20.48;62.64
52651;BME280;38537;47.226;39.702;2023-04-28T11:30:00;100003.00;;;20.45;61.75
52651;BME280;38537;47.226;39.702;2023-04-28T11:32:33;100016.63;;;20.09;63.11
52651;BME280;38537;47.226;39.702;2023-04-28T11:35:02;99987.56;;;19.90;63.25
52651;BME280;38537;47.226;39.702;2023-04-28T11:37:35;99985.25;;;19.99;63.06
52651;BME280;38537;47.226;39.702;2023-04-28T11:40:12;99987.88;;;20.11;63.23
52651;BME280;38537;47.226;39.702;2023-04-28T11:42:47;99983.56;;;19.68;64.19
52651;BME280;38537;47.226;39.702;2023-04-28T11:45:15;99977.47;;;19.24;64.55
52651;BME280;38537;47.226;39.702;2023-04-28T11:47:43;99958.22;;;18.91;64.69
52651;BME280;38537;47.226;39.702;2023-04-28T11:50:10;99932.47;;;18.19;66.36
52651;BME280;38537;47.226;39.702;2023-04-28T11:52:50;99947.44;;;17.68;68.23
52651;BME280;38537;47.226;39.702;2023-04-28T11:55:19;99942.69;;;17.41;69.14
52651;BME280;38537;47.226;39.702;2023-04-28T11:57:47;99937.06;;;17.09;70.43
52651;BME280;38537;47.226;39.702;2023-04-28T12:00:15;99922.72;;;16.59;72.60
52651;BME280;38537;47.226;39.702;2023-04-28T12:02:48;99917.44;;;16.29;73.71
52651;BME280;38537;47.226;39.702;2023-04-28T12:05:15;99919.84;;;16.15;74.69
52651;BME280;38537;47.226;39.702;2023-04-28T12:07:43;99910.63;;;15.90;75.62
52651;BME280;38537;47.226;39.702;2023-04-28T12:10:13;99928.69;;;15.89;76.48
52651;BME280;38537;47.226;39.702;2023-04-28T12:12:46;99926.47;;;15.83;77.13
52651;BME280;38537;47.226;39.702;2023-04-28T12:15:20;99917.59;;;15.68;77.79
52651;BME280;38537;47.226;39.702;2023-04-28T12:17:49;99888.72;;;15.47;79.13
52651;BME280;38537;47.226;39.702;2023-04-28T12:20:35;99898.13;;;15.63;81.60
52651;BME280;38537;47.226;39.702;2023-04-28T12:23:04;99873.25;;;15.53;80.12
52651;BME280;38537;47.226;39.702;2023-04-28T12:25:32;99876.31;;;15.60;80.13
52651;BME280;38537;47.226;39.702;2023-04-28T12:28:04;99883.09;;;15.71;80.38
52651;BME280;38537;47.226;39.702;2023-04-28T12:30:33;99870.50;;;15.81;80.48
52651;BME280;38537;47.226;39.702;2023-04-28T12:33:01;99864.28;;;15.88;79.85
52651;BME280;38537;47.226;39.702;2023-04-28T12:35:29;99873.97;;;16.02;79.35
52651;BME280;38537;47.226;39.702;2023-04-28T12:37:56;99867.28;;;16.07;78.28
52651;BME280;38537;47.226;39.702;2023-04-28T12:40:25;99878.16;;;16.21;77.19
52651;BME280;38537;47.226;39.702;2023-04-28T12:42:53;99885.38;;;16.34;77.16
52651;BME280;38537;47.226;39.702;2023-04-28T12:45:20;99867.75;;;16.37;76.86
52651;BME280;38537;47.226;39.702;2023-04-28T12:47:48;99862.56;;;16.39;76.84
52651;BME280;38537;47.226;39.702;2023-04-28T12:50:16;99859.94;;;16.46;77.36
52651;BME280;38537;47.226;39.702;2023-04-28T12:52:44;99849.09;;;16.32;77.07
52651;BME280;38537;47.226;39.702;2023-04-28T12:55:11;99871.22;;;16.46;77.44
52651;BME280;38537;47.226;39.702;2023-04-28T12:57:38;99866.78;;;16.45;77.42
52651;BME280;38537;47.226;39.702;2023-04-28T13:00:06;99866.16;;;16.52;77.81
52651;BME280;38537;47.226;39.702;2023-04-28T13:02:35;99880.22;;;16.64;77.44
52651;BME280;38537;47.226;39.702;2023-04-28T13:05:03;99864.59;;;16.82;77.17
52651;BME280;38537;47.226;39.702;2023-04-28T13:07:32;99857.41;;;16.85;77.14
52651;BME280;38537;47.226;39.702;2023-04-28T13:10:00;99850.84;;;16.96;76.83
52651;BME280;38537;47.226;39.702;2023-04-28T13:12:29;99854.03;;;17.10;76.86
52651;BME280;38537;47.226;39.702;2023-04-28T13:14:56;99848.31;;;17.23;76.54
52651;BME280;38537;47.226;39.702;2023-04-28T13:17:24;99839.34;;;17.36;76.19
52651;BME280;38537;47.226;39.702;2023-04-28T13:19:51;99852.88;;;17.62;75.04
52651;BME280;38537;47.226;39.702;2023-04-28T13:22:18;99852.03;;;17.77;75.18
52651;BME280;38537;47.226;39.702;2023-04-28T13:24:47;99854.38;;;17.91;74.46